createdAt,value
2018-05-24T00:01:18.425Z,14.87
2018-05-24T00:04:22.433Z,14.84
2018-05-24T00:07:26.731Z,14.89
2018-05-24T00:10:32.219Z,14.79
2018-05-24T00:13:35.884Z,14.76
2018-05-24T00:16:39.302Z,14.70
2018-05-24T00:19:43.562Z,14.71
2018-05-24T00:22:47.055Z,14.72
2018-05-24T00:25:50.623Z,14.69
2018-05-24T00:28:54.282Z,14.69
2018-05-24T00:31:57.711Z,14.61
2018-05-24T00:35:01.327Z,14.58
2018-05-24T00:38:05.548Z,14.28
2018-05-24T00:41:08.908Z,14.17
2018-05-24T00:44:12.446Z,14.11
2018-05-24T00:47:15.789Z,13.87
2018-05-24T00:50:19.308Z,14.02
2018-05-24T00:53:22.786Z,14.09
2018-05-24T00:56:26.493Z,14.17
2018-05-24T00:59:29.917Z,14.16
2018-05-24T01:02:33.270Z,14.12
2018-05-24T01:05:36.607Z,13.89
2018-05-24T01:08:39.931Z,13.87
2018-05-24T01:11:43.193Z,13.63
2018-05-24T01:14:46.450Z,13.85
2018-05-24T01:17:49.718Z,13.91
2018-05-24T01:20:52.991Z,13.85
2018-05-24T01:23:56.256Z,13.85
2018-05-24T01:26:59.534Z,13.91
2018-05-24T01:30:02.794Z,13.99
2018-05-24T01:33:06.166Z,14.02
2018-05-24T01:36:10.200Z,13.99
2018-05-24T01:39:13.449Z,13.95
2018-05-24T01:42:16.709Z,14.00
2018-05-24T01:45:19.998Z,13.99
2018-05-24T01:48:23.263Z,13.99
2018-05-24T01:51:27.385Z,14.04
2018-05-24T01:54:31.405Z,14.09
2018-05-24T01:57:35.425Z,14.10
2018-05-24T02:00:38.677Z,14.17
2018-05-24T02:03:42.110Z,14.19
2018-05-24T02:06:46.133Z,14.19
2018-05-24T02:09:49.514Z,14.20
2018-05-24T02:12:52.866Z,14.20
2018-05-24T02:15:56.125Z,14.20
2018-05-24T02:18:59.422Z,14.23
2018-05-24T02:22:02.702Z,14.18
2018-05-24T02:25:06.738Z,14.25
2018-05-24T02:28:10.342Z,14.25
2018-05-24T02:31:13.610Z,14.28
2018-05-24T02:34:16.859Z,14.38
2018-05-24T02:37:20.118Z,14.43
2018-05-24T02:40:24.137Z,14.38
2018-05-24T02:43:28.252Z,14.40
2018-05-24T02:46:31.560Z,14.40
2018-05-24T02:49:35.667Z,14.46
2018-05-24T02:52:39.691Z,14.39
2018-05-24T02:55:43.723Z,14.41
2018-05-24T02:58:47.189Z,14.44
2018-05-24T03:01:51.317Z,14.41
2018-05-24T03:04:55.341Z,14.42
2018-05-24T03:07:58.637Z,14.51
2018-05-24T03:11:02.686Z,14.49
2018-05-24T03:14:05.947Z,14.46
2018-05-24T03:17:09.966Z,14.58
2018-05-24T03:20:13.219Z,14.58
2018-05-24T03:23:17.702Z,14.57
2018-05-24T03:26:20.984Z,14.57
2018-05-24T03:29:25.097Z,14.64
2018-05-24T03:32:29.153Z,14.67
2018-05-24T03:35:32.423Z,14.67
2018-05-24T03:38:35.706Z,14.63
2018-05-24T03:41:39.752Z,14.61
2018-05-24T03:44:43.008Z,14.60
2018-05-24T03:47:47.854Z,14.60
2018-05-24T03:50:51.888Z,14.62
2018-05-24T03:53:55.160Z,14.67
2018-05-24T03:56:59.283Z,14.62
2018-05-24T04:00:20.819Z,14.67
2018-05-24T04:07:01.795Z,14.65
2018-05-24T04:10:05.830Z,14.65
2018-05-24T04:13:09.090Z,14.71
2018-05-24T04:16:14.476Z,14.72
2018-05-24T04:19:17.808Z,14.84
2018-05-24T04:22:23.331Z,14.88
2018-05-24T04:25:26.617Z,14.81
2018-05-24T04:28:30.637Z,14.94
2018-05-24T04:31:34.013Z,15.06
2018-05-24T04:34:37.331Z,15.08
2018-05-24T04:37:40.633Z,15.11
2018-05-24T04:40:43.974Z,15.09
2018-05-24T04:43:47.266Z,15.07
2018-05-24T04:46:58.090Z,15.23
2018-05-24T04:50:02.230Z,15.39
2018-05-24T04:53:05.550Z,15.42
2018-05-24T04:56:09.700Z,15.50
2018-05-24T04:59:13.304Z,15.70
2018-05-24T05:02:16.605Z,15.53
2018-05-24T05:05:19.882Z,15.74
2018-05-24T05:08:23.155Z,15.98
2018-05-24T05:11:26.413Z,15.97
2018-05-24T05:14:30.537Z,16.02
2018-05-24T05:17:34.566Z,15.90
2018-05-24T05:20:37.840Z,16.04
2018-05-24T05:23:41.910Z,16.04
2018-05-24T05:26:45.230Z,16.05
2018-05-24T05:29:48.787Z,15.96
2018-05-24T05:32:53.045Z,15.98
2018-05-24T05:35:56.674Z,16.08
2018-05-24T05:38:59.988Z,16.04
2018-05-24T05:42:04.179Z,16.15
2018-05-24T05:45:07.552Z,16.05
2018-05-24T05:48:10.807Z,16.02
2018-05-24T05:51:14.161Z,15.79
2018-05-24T05:54:17.542Z,15.89
2018-05-24T05:57:20.805Z,15.76
2018-05-24T06:00:24.109Z,15.75
2018-05-24T06:03:27.475Z,15.86
2018-05-24T06:06:30.812Z,16.00
2018-05-24T06:09:35.211Z,16.06
2018-05-24T06:12:38.456Z,16.01
2018-05-24T06:15:42.622Z,16.10
2018-05-24T06:18:46.653Z,16.04
2018-05-24T06:21:49.914Z,16.14
2018-05-24T06:24:53.210Z,16.12
2018-05-24T06:27:56.475Z,16.11
2018-05-24T06:30:59.755Z,16.25
2018-05-24T06:34:03.330Z,16.16
2018-05-24T06:37:06.942Z,16.11
2018-05-24T06:40:10.287Z,16.06
2018-05-24T06:43:14.398Z,15.95
2018-05-24T06:46:17.739Z,16.12
2018-05-24T06:49:21.493Z,15.95
2018-05-24T06:52:24.789Z,16.06
2018-05-24T06:55:46.413Z,16.18
2018-05-24T06:58:52.930Z,16.30
2018-05-24T07:01:56.207Z,16.38
2018-05-24T07:04:59.458Z,16.28
2018-05-24T07:08:03.488Z,16.31
2018-05-24T07:11:06.807Z,16.52
2018-05-24T07:14:10.061Z,16.55
2018-05-24T07:17:13.346Z,16.41
2018-05-24T07:20:17.406Z,16.79
2018-05-24T07:23:20.687Z,16.72
2018-05-24T07:26:24.827Z,16.76
2018-05-24T07:29:28.121Z,16.70
2018-05-24T07:32:31.441Z,16.90
2018-05-24T07:35:34.705Z,16.56
2018-05-24T07:38:37.965Z,17.03
2018-05-24T07:41:41.230Z,17.00
2018-05-24T07:44:44.491Z,16.79
2018-05-24T07:47:47.745Z,16.82
2018-05-24T07:50:51.001Z,17.08
2018-05-24T07:53:54.283Z,16.94
2018-05-24T07:56:58.330Z,16.78
2018-05-24T08:00:01.592Z,17.20
2018-05-24T08:03:05.638Z,17.55
2018-05-24T08:06:08.997Z,17.78
2018-05-24T08:09:13.069Z,18.21
2018-05-24T08:12:16.442Z,18.24
2018-05-24T08:15:19.769Z,18.02
2018-05-24T08:18:23.053Z,17.79
2018-05-24T08:21:26.310Z,17.43
2018-05-24T08:24:30.430Z,17.28
2018-05-24T08:27:34.449Z,17.32
2018-05-24T08:30:37.760Z,17.66
2018-05-24T08:33:41.017Z,18.04
2018-05-24T08:36:44.275Z,18.27
2018-05-24T08:39:47.551Z,17.94
2018-05-24T08:42:50.813Z,18.03
2018-05-24T08:45:54.837Z,17.87
2018-05-24T08:48:58.879Z,18.07
2018-05-24T08:52:02.242Z,18.08
2018-05-24T08:55:06.262Z,18.29
2018-05-24T08:58:10.322Z,18.14
2018-05-24T09:01:13.775Z,18.49
2018-05-24T09:04:16.990Z,18.33
2018-05-24T09:07:21.212Z,18.58
2018-05-24T09:10:24.467Z,18.98
2018-05-24T09:13:27.772Z,19.17
2018-05-24T09:16:31.034Z,17.87
2018-05-24T09:19:34.304Z,18.20
2018-05-24T09:22:37.599Z,18.55
2018-05-24T09:25:40.863Z,18.92
2018-05-24T09:28:44.113Z,19.30
2018-05-24T09:31:47.384Z,19.77
2018-05-24T09:34:51.398Z,19.44
2018-05-24T09:37:54.695Z,18.36
2018-05-24T09:40:58.839Z,18.97
2018-05-24T09:44:02.082Z,19.17
2018-05-24T09:47:05.351Z,18.44
2018-05-24T09:50:08.676Z,18.16
2018-05-24T09:53:12.694Z,18.55
2018-05-24T09:56:15.977Z,19.01
2018-05-24T09:59:19.231Z,19.87
2018-05-24T10:02:22.516Z,20.02
2018-05-24T10:05:25.945Z,20.18
2018-05-24T10:08:29.212Z,20.53
2018-05-24T10:11:32.474Z,20.35
2018-05-24T10:14:36.502Z,20.84
2018-05-24T10:17:40.533Z,20.94
2018-05-24T10:20:44.562Z,20.72
2018-05-24T10:23:47.829Z,21.24
2018-05-24T10:26:51.960Z,20.91
2018-05-24T10:29:55.242Z,20.02
2018-05-24T10:32:59.276Z,20.50
2018-05-24T10:36:02.529Z,20.73
2018-05-24T10:39:06.482Z,20.78
2018-05-24T10:42:10.570Z,20.63
2018-05-24T10:45:13.882Z,21.16
2018-05-24T10:48:17.094Z,21.16
2018-05-24T10:51:20.437Z,21.47
2018-05-24T10:54:24.410Z,22.08
2018-05-24T10:57:28.451Z,22.19
2018-05-24T11:00:33.170Z,22.29
2018-05-24T11:03:36.439Z,21.65
2018-05-24T11:06:40.577Z,21.25
2018-05-24T11:09:43.835Z,21.78
2018-05-24T11:12:47.108Z,21.77
2018-05-24T11:15:51.190Z,21.98
2018-05-24T11:18:54.438Z,22.02
2018-05-24T11:21:57.879Z,21.96
2018-05-24T11:25:01.995Z,21.60
2018-05-24T11:28:05.300Z,21.67
2018-05-24T11:31:08.545Z,21.38
2018-05-24T11:34:11.883Z,21.38
2018-05-24T11:37:15.905Z,20.92
2018-05-24T11:40:19.158Z,21.82
2018-05-24T11:43:24.019Z,21.32
2018-05-24T11:46:27.190Z,21.05
2018-05-24T11:49:30.441Z,20.62
2018-05-24T11:52:33.718Z,21.17
2018-05-24T11:55:37.790Z,20.75
2018-05-24T11:58:41.133Z,21.48
2018-05-24T12:01:45.352Z,20.67
2018-05-24T12:04:48.655Z,21.99
2018-05-24T12:07:52.112Z,21.19
2018-05-24T12:10:55.442Z,20.73
2018-05-24T12:13:59.478Z,20.83
2018-05-24T12:17:02.773Z,21.73
2018-05-24T12:20:06.055Z,21.73
2018-05-24T12:23:10.095Z,21.16
2018-05-24T12:26:13.369Z,21.49
2018-05-24T12:29:16.950Z,20.79
2018-05-24T12:32:20.209Z,21.12
2018-05-24T12:35:23.675Z,20.62
2018-05-24T12:38:26.846Z,20.87
2018-05-24T12:41:30.215Z,20.67
2018-05-24T12:44:33.544Z,20.53
2018-05-24T12:47:37.706Z,20.51
2018-05-24T12:50:41.008Z,20.97
2018-05-24T12:53:44.906Z,21.01
2018-05-24T12:56:48.498Z,21.80
2018-05-24T12:59:52.621Z,21.88
2018-05-24T13:02:55.880Z,21.65
2018-05-24T13:05:59.163Z,21.20
2018-05-24T13:09:02.411Z,20.86
2018-05-24T13:12:05.664Z,21.41
2018-05-24T13:15:09.649Z,21.63
2018-05-24T13:18:13.076Z,20.97
2018-05-24T13:21:16.365Z,20.73
2018-05-24T13:24:19.622Z,21.18
2018-05-24T13:27:22.948Z,21.56
2018-05-24T13:30:26.191Z,20.97
2018-05-24T13:33:30.122Z,20.99
2018-05-24T13:36:33.445Z,21.17
2018-05-24T13:39:36.691Z,21.02
2018-05-24T13:42:39.953Z,21.11
2018-05-24T13:45:43.251Z,21.32
2018-05-24T13:48:46.501Z,21.76
2018-05-24T13:51:50.545Z,21.30
2018-05-24T13:54:53.847Z,20.93
2018-05-24T13:57:57.218Z,21.82
2018-05-24T14:01:00.901Z,21.27
2018-05-24T14:04:07.696Z,20.82
2018-05-24T14:07:12.071Z,20.60
2018-05-24T14:13:29.598Z,20.70
2018-05-24T14:16:32.922Z,20.49
2018-05-24T14:19:38.552Z,20.52
2018-05-24T14:22:41.942Z,20.91
2018-05-24T14:25:45.248Z,20.98
2018-05-24T14:28:48.567Z,21.26
2018-05-24T14:31:51.940Z,21.26
2018-05-24T14:34:55.259Z,21.37
2018-05-24T14:37:58.619Z,22.15
2018-05-24T14:41:02.889Z,22.26
2018-05-24T14:44:06.212Z,21.91
2018-05-24T14:47:09.525Z,22.15
2018-05-24T14:50:13.581Z,21.61
2018-05-24T14:53:16.851Z,21.85
2018-05-24T14:56:20.905Z,21.13
2018-05-24T14:59:24.497Z,21.31
2018-05-24T15:02:27.807Z,21.61
2018-05-24T15:05:32.422Z,21.76
2018-05-24T15:08:35.716Z,22.05
2018-05-24T15:11:39.010Z,22.73
2018-05-24T15:14:42.263Z,22.52
2018-05-24T15:17:45.515Z,22.56
2018-05-24T15:20:48.777Z,22.93
2018-05-24T15:23:52.894Z,22.75
2018-05-24T15:26:56.179Z,22.90
2018-05-24T15:29:59.438Z,23.16
2018-05-24T15:33:02.745Z,22.70
2018-05-24T15:36:07.710Z,23.03
2018-05-24T15:39:11.743Z,22.39
2018-05-24T15:42:15.780Z,22.62
2018-05-24T15:45:19.025Z,22.41
2018-05-24T15:48:22.297Z,22.28
2018-05-24T15:51:25.567Z,22.48
2018-05-24T15:54:28.892Z,22.30
2018-05-24T15:57:32.153Z,22.32
2018-05-24T16:00:35.412Z,22.35
2018-05-24T16:03:38.732Z,22.12
2018-05-24T16:06:42.782Z,21.68
2018-05-24T16:09:46.043Z,21.33
2018-05-24T16:12:50.069Z,21.28
2018-05-24T16:15:53.326Z,21.17
2018-05-24T16:18:56.601Z,21.09
2018-05-24T16:21:59.877Z,21.13
2018-05-24T16:25:03.158Z,20.90
2018-05-24T16:28:06.428Z,20.88
2018-05-24T16:31:09.677Z,20.75
2018-05-24T16:34:12.939Z,20.68
2018-05-24T16:37:16.965Z,20.49
2018-05-24T16:40:21.017Z,20.40
2018-05-24T16:43:24.374Z,20.53
2018-05-24T16:46:28.401Z,20.04
2018-05-24T16:49:31.670Z,19.78
2018-05-24T16:52:34.921Z,19.78
2018-05-24T16:55:38.193Z,19.59
2018-05-24T16:58:41.449Z,19.53
2018-05-24T17:01:44.716Z,19.66
2018-05-24T17:04:47.967Z,19.50
2018-05-24T17:07:51.255Z,19.34
2018-05-24T17:10:55.283Z,19.05
2018-05-24T17:13:59.412Z,19.12
2018-05-24T17:17:02.683Z,18.98
2018-05-24T17:20:05.938Z,19.08
2018-05-24T17:23:09.303Z,19.24
2018-05-24T17:26:13.638Z,19.22
2018-05-24T17:29:16.891Z,19.29
2018-05-24T17:32:20.258Z,19.04
2018-05-24T17:35:24.437Z,19.03
2018-05-24T17:38:27.739Z,18.78
2018-05-24T17:41:30.997Z,18.82
2018-05-24T17:44:34.253Z,18.79
2018-05-24T17:47:37.515Z,18.82
2018-05-24T17:50:41.546Z,18.79
2018-05-24T17:53:44.809Z,18.71
2018-05-24T17:56:48.147Z,18.86
2018-05-24T17:59:51.398Z,18.92
2018-05-24T18:02:54.662Z,18.88
2018-05-24T18:05:58.045Z,18.70
2018-05-24T18:09:01.341Z,18.63
2018-05-24T18:12:04.610Z,18.57
2018-05-24T18:15:08.649Z,18.48
2018-05-24T18:18:11.918Z,18.38
2018-05-24T18:21:15.980Z,18.31
2018-05-24T18:24:19.212Z,18.11
2018-05-24T18:27:22.524Z,18.01
2018-05-24T18:30:25.850Z,17.89
2018-05-24T18:33:29.154Z,18.01
2018-05-24T18:36:32.463Z,17.91
2018-05-24T18:39:35.718Z,17.70
2018-05-24T18:42:39.326Z,17.59
2018-05-24T18:45:42.546Z,17.57
2018-05-24T18:48:46.569Z,17.60
2018-05-24T18:51:49.830Z,17.63
2018-05-24T18:54:53.256Z,17.54
2018-05-24T18:57:57.375Z,17.53
2018-05-24T19:01:00.679Z,17.53
2018-05-24T19:04:04.067Z,17.51
2018-05-24T19:07:08.103Z,17.48
2018-05-24T19:10:11.381Z,17.63
2018-05-24T19:13:14.642Z,17.48
2018-05-24T19:16:17.974Z,17.43
2018-05-24T19:19:21.370Z,17.50
2018-05-24T19:22:25.389Z,17.39
2018-05-24T19:25:29.465Z,17.42
2018-05-24T19:28:32.816Z,17.35
2018-05-24T19:31:36.069Z,17.34
2018-05-24T19:34:39.381Z,17.40
2018-05-24T19:37:42.622Z,17.36
2018-05-24T19:40:45.901Z,17.31
2018-05-24T19:43:49.246Z,17.26
2018-05-24T19:46:52.486Z,17.38
2018-05-24T19:49:56.511Z,17.58
2018-05-24T19:52:59.763Z,17.51
2018-05-24T19:56:03.093Z,17.45
2018-05-24T19:59:07.526Z,17.35
2018-05-24T20:02:10.823Z,17.22
2018-05-24T20:05:14.837Z,16.78
2018-05-24T20:08:18.117Z,16.62
2018-05-24T20:11:21.498Z,16.43
2018-05-24T20:14:24.764Z,16.20
2018-05-24T20:17:28.058Z,16.13
2018-05-24T20:20:32.567Z,15.94
2018-05-24T20:23:35.821Z,15.95
2018-05-24T20:26:39.093Z,15.96
2018-05-24T20:29:42.351Z,15.92
2018-05-24T20:32:45.627Z,15.96
2018-05-24T20:35:48.903Z,15.88
2018-05-24T20:38:52.168Z,15.82
2018-05-24T20:41:55.418Z,15.78
2018-05-24T20:44:59.429Z,15.78
2018-05-24T20:48:03.451Z,15.75
2018-05-24T20:51:07.478Z,15.67
2018-05-24T20:54:10.746Z,15.67
2018-05-24T20:57:14.032Z,15.68
2018-05-24T21:00:18.063Z,15.59
2018-05-24T21:03:21.316Z,15.64
2018-05-24T21:06:24.577Z,15.46
2018-05-24T21:09:27.842Z,15.36
2018-05-24T21:12:31.891Z,15.02
2018-05-24T21:15:35.973Z,15.06
2018-05-24T21:18:39.292Z,15.18
2018-05-24T21:21:46.033Z,15.14
2018-05-24T21:24:49.965Z,15.14
2018-05-24T21:27:53.274Z,15.13
2018-05-24T21:30:59.170Z,15.25
2018-05-24T21:34:02.858Z,15.14
2018-05-24T21:37:06.894Z,15.06
2018-05-24T21:40:11.265Z,14.99
2018-05-24T21:43:14.564Z,14.89
2018-05-24T21:46:19.125Z,14.94
2018-05-24T21:49:22.398Z,14.90
2018-05-24T21:52:25.712Z,14.84
2018-05-24T21:55:29.624Z,14.82
2018-05-24T21:58:34.255Z,14.76
2018-05-24T22:01:39.344Z,14.74
2018-05-24T22:04:42.598Z,14.70
2018-05-24T22:07:45.852Z,14.71
2018-05-24T22:10:49.137Z,14.61
2018-05-24T22:13:52.384Z,14.59
2018-05-24T22:16:55.686Z,14.58
2018-05-24T22:19:59.018Z,14.50
2018-05-24T22:23:03.033Z,14.39
2018-05-24T22:26:06.295Z,14.36
2018-05-24T22:29:09.547Z,14.33
2018-05-24T22:32:13.093Z,14.28
2018-05-24T22:35:16.350Z,14.21
2018-05-24T22:38:19.606Z,14.13
2018-05-24T22:41:23.731Z,14.12
2018-05-24T22:44:27.753Z,14.10
2018-05-24T22:47:31.003Z,14.13
2018-05-24T22:50:34.473Z,14.11
2018-05-24T22:53:37.762Z,14.05
2018-05-24T22:56:41.048Z,14.05
2018-05-24T22:59:44.360Z,13.96
2018-05-24T23:02:48.025Z,13.93
2018-05-24T23:05:52.093Z,13.86
2018-05-24T23:08:55.345Z,13.80
2018-05-24T23:11:59.505Z,13.75
2018-05-24T23:15:02.765Z,13.75
2018-05-24T23:18:06.786Z,13.77
2018-05-24T23:21:10.114Z,13.62
2018-05-24T23:24:13.362Z,13.69
2018-05-24T23:27:17.395Z,13.61
2018-05-24T23:30:20.650Z,13.55
2018-05-24T23:33:23.943Z,13.55
2018-05-24T23:36:27.193Z,13.50
2018-05-24T23:39:30.441Z,13.42
2018-05-24T23:42:33.704Z,13.33
2018-05-24T23:45:37.073Z,13.24
2018-05-24T23:48:41.096Z,13.28
2018-05-24T23:51:44.349Z,13.25
2018-05-24T23:54:47.631Z,13.26
2018-05-24T23:57:50.903Z,13.16
